Time;durP1;ratioP1;P1;durP2;ratioP2;P2;SDS_P1;SDS_P2;PMS_P1;PMS_P2;Temp;Humidity;BMP_temperature;BMP_pressure;BME280_temperature;BME280_humidity;BME280_pressure;Samples;Min_cycle;Max_cycle;Signal;HPM_P1;HPM_P2
2023/04/27 00:02:06;;;;;;;9.97;4.60;;;;;;;5.80;100.00;100284.56;5077132;28;20323;-72
2023/04/27 00:04:32;;;;;;;5.77;4.33;;;;;;;5.72;100.00;100283.09;5071495;28;20232;-72
2023/04/27 00:06:57;;;;;;;7.37;4.57;;;;;;;5.57;100.00;100284.41;5070501;28;20250;-73
2023/04/27 00:09:22;;;;;;;7.13;4.40;;;;;;;5.46;100.00;100283.03;5070755;28;20231;-72
2023/04/27 00:11:48;;;;;;;9.83;4.80;;;;;;;5.34;100.00;100284.22;5063437;28;20222;-73
2023/04/27 00:14:13;;;;;;;7.10;4.37;;;;;;;5.31;100.00;100276.69;5073301;28;20268;-73
2023/04/27 00:16:38;;;;;;;8.90;4.53;;;;;;;5.19;100.00;100273.66;5070252;28;20643;-73
2023/04/27 00:19:04;;;;;;;5.73;4.40;;;;;;;5.04;100.00;100274.97;5070300;28;20236;-72
2023/04/27 00:21:29;;;;;;;8.60;4.37;;;;;;;4.95;100.00;100270.91;5063452;28;20232;-71
2023/04/27 00:23:54;;;;;;;7.97;4.67;;;;;;;4.83;100.00;100272.13;5075841;28;20276;-71
2023/04/27 00:26:21;;;;;;;8.20;4.70;;;;;;;4.80;100.00;100273.03;5064078;28;20190;-71
2023/04/27 00:28:46;;;;;;;6.47;4.43;;;;;;;4.72;100.00;100276.69;5075679;28;20184;-72
2023/04/27 00:31:12;;;;;;;7.70;4.70;;;;;;;4.64;100.00;100280.28;5060142;28;20264;-72
2023/04/27 00:33:37;;;;;;;7.20;4.53;;;;;;;4.62;100.00;100271.81;5064320;28;20234;-73
2023/04/27 00:36:02;;;;;;;9.17;5.33;;;;;;;4.53;100.00;100278.00;5069713;28;20471;-72
2023/04/27 00:38:28;;;;;;;10.37;5.03;;;;;;;4.43;100.00;100276.59;5070149;28;20549;-72
2023/04/27 00:41:04;;;;;;;6.37;4.57;;;;;;;4.37;100.00;100276.75;5063325;28;20315;-72
2023/04/27 00:43:30;;;;;;;7.83;4.90;;;;;;;4.38;100.00;100280.97;5079192;28;20177;-72
2023/04/27 00:45:55;;;;;;;6.27;4.73;;;;;;;4.43;100.00;100280.81;5069645;28;20184;-72
2023/04/27 00:48:21;;;;;;;7.20;4.50;;;;;;;4.49;100.00;100285.75;5071625;28;20181;-72
2023/04/27 00:50:46;;;;;;;6.37;4.87;;;;;;;4.57;100.00;100280.50;5066701;28;20248;-72
2023/04/27 00:53:13;;;;;;;9.27;5.50;;;;;;;4.57;100.00;100278.75;5063292;28;20244;-72
2023/04/27 00:55:39;;;;;;;10.23;5.70;;;;;;;4.50;100.00;100274.69;5062662;28;20264;-72
2023/04/27 00:58:04;;;;;;;7.73;4.80;;;;;;;4.56;100.00;100268.63;5071025;28;20687;-73
2023/04/27 01:00:30;;;;;;;6.23;4.63;;;;;;;4.55;100.00;100272.03;5064733;28;20707;-73
2023/04/27 01:02:55;;;;;;;6.63;4.57;;;;;;;4.59;100.00;100279.56;5070010;28;20177;-73
2023/04/27 01:05:21;;;;;;;8.90;5.53;;;;;;;4.57;100.00;100288.94;5086240;28;20198;-73
2023/04/27 01:07:47;;;;;;;9.03;5.00;;;;;;;4.58;100.00;100280.44;5069937;28;20287;-72
2023/04/27 01:10:12;;;;;;;6.60;4.70;;;;;;;4.52;100.00;100280.59;5060512;28;20228;-72
2023/04/27 01:12:37;;;;;;;8.80;5.97;;;;;;;4.36;100.00;100278.44;5085410;28;20183;-73
2023/04/27 01:15:04;;;;;;;6.47;5.03;;;;;;;4.28;100.00;100280.38;5070774;28;20558;-71
2023/04/27 01:17:29;;;;;;;7.97;5.10;;;;;;;4.24;100.00;100281.31;5069998;28;20189;-72
2023/04/27 01:19:55;;;;;;;10.53;5.57;;;;;;;4.19;100.00;100278.03;5082535;28;20180;-71
2023/04/27 01:22:21;;;;;;;7.13;5.17;;;;;;;4.11;100.00;100287.59;5074192;28;20220;-72
2023/04/27 01:24:46;;;;;;;8.47;5.70;;;;;;;4.04;100.00;100282.66;5061957;28;20939;-72
2023/04/27 01:27:12;;;;;;;7.90;5.17;;;;;;;3.97;100.00;100286.22;5064988;28;20185;-72
2023/04/27 01:29:38;;;;;;;7.40;5.13;;;;;;;3.81;100.00;100295.09;5064341;28;20181;-72
2023/04/27 01:32:03;;;;;;;8.30;5.03;;;;;;;3.78;100.00;100295.97;5059034;28;20228;-73
2023/04/27 01:34:28;;;;;;;7.33;5.13;;;;;;;3.71;100.00;100299.56;5065222;28;20221;-73
2023/04/27 01:36:54;;;;;;;6.50;4.63;;;;;;;3.68;100.00;100295.38;5071068;28;20205;-72
2023/04/27 01:39:19;;;;;;;8.93;4.83;;;;;;;3.58;100.00;100300.72;5067431;28;20682;-72
2023/04/27 01:41:44;;;;;;;8.97;5.00;;;;;;;3.52;100.00;100291.50;5065778;28;20646;-72
2023/04/27 01:44:10;;;;;;;6.30;4.87;;;;;;;3.61;100.00;100295.53;5069913;28;20185;-73
2023/04/27 01:46:36;;;;;;;7.97;4.77;;;;;;;3.58;100.00;100300.72;5067427;28;20184;-72
2023/04/27 01:49:01;;;;;;;11.20;5.27;;;;;;;3.50;100.00;100296.63;5089584;28;20194;-71
2023/04/27 01:51:27;;;;;;;7.00;5.30;;;;;;;3.48;100.00;100302.63;5066241;28;20318;-72
2023/04/27 01:53:52;;;;;;;9.37;4.70;;;;;;;3.41;100.00;100294.25;5079014;28;20203;-71
2023/04/27 01:56:17;;;;;;;5.43;4.63;;;;;;;3.43;100.00;100286.63;5072839;28;20281;-72
2023/04/27 01:58:43;;;;;;;7.30;5.13;;;;;;;3.40;100.00;100297.72;5074279;28;20187;-73
2023/04/27 02:01:08;;;;;;;11.03;5.50;;;;;;;3.39;100.00;100294.31;5065882;28;20325;-73
2023/04/27 02:03:33;;;;;;;10.67;5.67;;;;;;;3.33;100.00;100294.44;5081163;28;20173;-72
2023/04/27 02:05:58;;;;;;;7.63;5.20;;;;;;;3.27;100.00;100294.56;5073974;28;20201;-71
2023/04/27 02:08:24;;;;;;;9.03;5.20;;;;;;;3.21;100.00;100304.88;5072635;28;20350;-72
2023/04/27 02:10:49;;;;;;;7.03;4.93;;;;;;;3.23;100.00;100303.97;5070384;28;20305;-72
2023/04/27 02:13:14;;;;;;;9.77;5.70;;;;;;;3.20;100.00;100306.59;5072967;28;20189;-72
2023/04/27 02:15:40;;;;;;;8.03;5.00;;;;;;;3.18;100.00;100307.50;5089304;28;20181;-72
2023/04/27 02:18:05;;;;;;;7.93;4.67;;;;;;;3.16;100.00;100307.53;5089196;28;20237;-72
2023/04/27 02:20:31;;;;;;;9.20;4.40;;;;;;;3.23;100.00;100309.06;5061996;28;20762;-72
2023/04/27 02:22:56;;;;;;;8.17;4.87;;;;;;;3.16;100.00;100312.63;5082885;28;20191;-72
2023/04/27 02:25:22;;;;;;;7.50;5.00;;;;;;;3.10;100.00;100314.44;5073569;28;20690;-71
2023/04/27 02:27:47;;;;;;;6.33;5.33;;;;;;;3.17;100.00;100315.97;5073940;28;20571;-72
2023/04/27 02:30:12;;;;;;;9.43;5.17;;;;;;;3.14;100.00;100313.47;5064819;28;20194;-71
2023/04/27 02:32:38;;;;;;;10.00;5.57;;;;;;;3.11;100.00;100319.47;5072415;28;20187;-72
2023/04/27 02:35:04;;;;;;;9.90;5.43;;;;;;;3.09;100.00;100326.31;5073249;28;20546;-72
2023/04/27 02:37:30;;;;;;;6.10;4.93;;;;;;;3.06;100.00;100339.06;5073644;28;20269;-73
2023/04/27 02:39:55;;;;;;;9.37;5.17;;;;;;;2.98;100.00;100333.31;5069039;28;20185;-73
2023/04/27 02:42:21;;;;;;;8.10;5.63;;;;;;;2.90;100.00;100325.81;5075342;28;20214;-73
2023/04/27 02:44:46;;;;;;;15.63;6.73;;;;;;;2.84;100.00;100320.84;5073319;28;20583;-72
2023/04/27 02:47:12;;;;;;;8.27;5.97;;;;;;;2.73;100.00;100319.34;5068652;28;20284;-72
2023/04/27 02:49:37;;;;;;;8.23;6.67;;;;;;;2.71;100.00;100315.16;5064934;28;20188;-72
2023/04/27 02:52:03;;;;;;;8.80;5.53;;;;;;;2.72;100.00;100311.78;5060489;28;20242;-73
2023/04/27 02:54:28;;;;;;;6.67;5.80;;;;;;;2.70;100.00;100319.41;5063168;28;20706;-73
2023/04/27 02:56:54;;;;;;;8.57;5.67;;;;;;;2.62;100.00;100308.56;5072975;28;20497;-73
2023/04/27 02:59:19;;;;;;;8.10;5.40;;;;;;;2.62;100.00;100318.72;5073406;28;20179;-72
2023/04/27 03:01:45;;;;;;;9.30;5.83;;;;;;;2.62;100.00;100318.72;5054333;28;20219;-73
2023/04/27 03:04:12;;;;;;;8.67;6.00;;;;;;;2.60;100.00;100317.06;5071217;28;20202;-73
2023/04/27 03:06:38;;;;;;;10.87;5.90;;;;;;;2.62;100.00;100316.19;5060041;28;20223;-73
2023/04/27 03:09:04;;;;;;;13.30;6.37;;;;;;;2.62;100.00;100312.78;5068817;28;20691;-72
2023/04/27 03:11:29;;;;;;;9.00;5.60;;;;;;;2.66;100.00;100310.16;5073847;28;20223;-72
2023/04/27 03:13:55;;;;;;;8.80;5.90;;;;;;;2.67;100.00;100304.22;5071097;28;20211;-74
2023/04/27 03:16:20;;;;;;;6.60;5.20;;;;;;;2.74;100.00;100310.00;5060762;28;20694;-73
2023/04/27 03:18:45;;;;;;;10.10;6.30;;;;;;;2.79;100.00;100304.84;5065440;28;20269;-73
2023/04/27 03:21:12;;;;;;;11.03;6.50;;;;;;;2.84;100.00;100311.53;5064454;28;20674;-72
2023/04/27 03:23:38;;;;;;;9.90;6.10;;;;;;;2.92;100.00;100303.75;5079100;28;20193;-73
2023/04/27 03:26:11;;;;;;;9.33;6.40;;;;;;;2.83;100.00;100309.00;5067384;28;20242;-73
2023/04/27 03:28:37;;;;;;;11.17;6.40;;;;;;;3.03;100.00;100313.72;5067662;28;20176;-73
2023/04/27 03:31:10;;;;;;;11.43;5.57;;;;;;;2.96;100.00;100313.00;5049073;28;20230;-73
2023/04/27 03:33:36;;;;;;;11.90;6.47;;;;;;;3.01;100.00;100313.72;5062639;28;20274;-73
2023/04/27 03:36:03;;;;;;;7.20;5.70;;;;;;;3.02;100.00;100294.25;5067256;28;20185;-73
2023/04/27 03:38:29;;;;;;;10.57;6.33;;;;;;;3.00;100.00;100301.91;5069280;28;20671;-73
2023/04/27 03:40:54;;;;;;;9.60;6.30;;;;;;;3.02;100.00;100301.88;5060713;28;20236;-73
2023/04/27 03:43:20;;;;;;;8.83;5.87;;;;;;;3.01;100.00;100295.13;5077327;28;20248;-73
2023/04/27 03:45:46;;;;;;;7.03;5.70;;;;;;;2.97;100.00;100298.59;5070288;28;20570;-73
2023/04/27 03:48:12;;;;;;;11.23;6.40;;;;;;;2.94;100.00;100301.19;5070967;28;20180;-73
2023/04/27 03:50:38;;;;;;;9.33;6.17;;;;;;;3.01;100.00;100300.19;5063494;28;20235;-73
2023/04/27 03:53:03;;;;;;;8.43;5.93;;;;;;;3.04;100.00;100303.50;5070900;28;20230;-72
2023/04/27 03:55:28;;;;;;;9.00;5.87;;;;;;;3.10;100.00;100305.09;5081666;28;20267;-74
2023/04/27 03:57:54;;;;;;;8.17;6.03;;;;;;;3.19;100.00;100304.91;5071882;28;20278;-73
2023/04/27 04:00:19;;;;;;;10.77;6.23;;;;;;;3.31;100.00;100300.44;5062345;28;20189;-73
2023/04/27 04:02:45;;;;;;;7.40;5.60;;;;;;;3.37;100.00;100313.88;5070948;28;20599;-73
2023/04/27 04:05:13;;;;;;;11.73;6.37;;;;;;;3.43;100.00;100312.06;5070841;28;20219;-73
2023/04/27 04:07:40;;;;;;;8.30;5.50;;;;;;;3.41;100.00;100312.06;5070099;28;20233;-72
2023/04/27 04:10:06;;;;;;;11.33;6.70;;;;;;;3.44;100.00;100308.66;5060269;28;20224;-72
2023/04/27 04:12:32;;;;;;;10.47;6.40;;;;;;;3.56;100.00;100313.47;5067692;28;20181;-72
2023/04/27 04:14:57;;;;;;;9.10;6.10;;;;;;;3.67;100.00;100320.84;5079256;28;20184;-73
2023/04/27 04:17:23;;;;;;;10.60;5.60;;;;;;;3.76;100.00;100309.63;5070502;28;20639;-71
2023/04/27 04:19:48;;;;;;;7.43;5.30;;;;;;;3.87;100.00;100312.78;5071925;28;20176;-73
2023/04/27 04:22:13;;;;;;;9.97;5.23;;;;;;;3.99;100.00;100315.00;5053673;28;20224;-72
2023/04/27 04:24:39;;;;;;;7.30;5.40;;;;;;;4.02;100.00;100306.47;5080085;28;20253;-72
2023/04/27 04:27:05;;;;;;;7.57;5.40;;;;;;;4.09;100.00;100310.53;5067265;28;20624;-72
2023/04/27 04:29:30;;;;;;;6.83;5.83;;;;;;;4.06;100.00;100312.31;5072054;28;20259;-72
2023/04/27 04:31:55;;;;;;;11.40;6.07;;;;;;;4.09;100.00;100307.97;5075894;28;20381;-72
2023/04/27 04:34:21;;;;;;;9.50;5.90;;;;;;;4.15;100.00;100314.66;5070741;28;20203;-72
2023/04/27 04:36:50;;;;;;;7.60;5.33;;;;;;;4.18;100.00;100312.88;5069867;28;20634;-72
2023/04/27 04:39:15;;;;;;;9.97;5.63;;;;;;;4.29;100.00;100319.38;5067253;28;20200;-72
2023/04/27 04:41:41;;;;;;;6.93;5.40;;;;;;;4.33;100.00;100315.91;5060060;28;20682;-71
2023/04/27 04:44:07;;;;;;;13.57;6.07;;;;;;;4.36;100.00;100319.19;5073904;28;20180;-73
2023/04/27 04:46:32;;;;;;;9.20;5.70;;;;;;;4.42;100.00;100322.47;5066761;28;20184;-73
2023/04/27 04:48:57;;;;;;;9.73;5.60;;;;;;;4.42;100.00;100328.41;5070704;28;20185;-71
2023/04/27 04:51:22;;;;;;;9.57;6.17;;;;;;;4.39;100.00;100327.63;5063071;28;20244;-72
2023/04/27 04:53:48;;;;;;;11.77;6.13;;;;;;;4.48;100.00;100324.88;5070254;28;20469;-72
2023/04/27 04:56:15;;;;;;;6.53;5.73;;;;;;;4.58;100.00;100333.13;5069517;28;20713;-72
2023/04/27 04:58:41;;;;;;;9.40;5.10;;;;;;;4.56;100.00;100325.50;5069822;28;20182;-72
2023/04/27 05:01:06;;;;;;;7.73;5.47;;;;;;;4.53;100.00;100328.13;5075268;28;20252;-73
2023/04/27 05:03:31;;;;;;;6.63;4.90;;;;;;;4.62;100.00;100332.16;5083733;28;20238;-73
2023/04/27 05:05:57;;;;;;;10.53;5.03;;;;;;;4.72;100.00;100331.03;5069444;28;20217;-72
2023/04/27 05:08:22;;;;;;;7.90;5.70;;;;;;;4.80;100.00;100339.31;5070942;28;20329;-72
2023/04/27 05:10:52;;;;;;;12.93;5.30;;;;;;;4.90;100.00;100333.94;5062828;28;20224;-71
2023/04/27 05:13:17;;;;;;;9.67;6.30;;;;;;;5.04;100.00;100339.53;5065221;28;20212;-72
2023/04/27 05:15:43;;;;;;;8.17;5.73;;;;;;;5.15;100.00;100344.31;5084375;28;20209;-73
2023/04/27 05:18:09;;;;;;;6.40;5.17;;;;;;;5.27;100.00;100343.97;5073775;28;20239;-71
2023/04/27 05:20:36;;;;;;;10.90;5.77;;;;;;;5.33;100.00;100341.25;5068881;28;20633;-72
2023/04/27 05:23:02;;;;;;;10.87;5.60;;;;;;;5.40;100.00;100341.91;5073801;28;20563;-72
2023/04/27 05:25:31;;;;;;;7.67;5.60;;;;;;;5.49;100.00;100351.84;5073037;28;20181;-73
2023/04/27 05:27:57;;;;;;;7.87;5.37;;;;;;;5.63;100.00;100350.56;5074345;28;20173;-73
2023/04/27 05:30:22;;;;;;;8.03;4.97;;;;;;;5.66;100.00;100356.44;5066168;28;20248;-73
2023/04/27 05:32:48;;;;;;;7.53;5.30;;;;;;;5.65;100.00;100356.47;5073393;28;20185;-73
2023/04/27 05:35:16;;;;;;;9.80;5.60;;;;;;;5.65;100.00;100352.19;5092679;28;20289;-72
2023/04/27 05:37:41;;;;;;;11.13;6.20;;;;;;;5.85;100.00;100353.31;5079781;28;20175;-73
2023/04/27 05:40:11;;;;;;;8.20;4.90;;;;;;;5.97;100.00;100354.66;5063107;28;20174;-73
2023/04/27 05:42:36;;;;;;;7.97;4.93;;;;;;;6.12;100.00;100355.94;5073092;28;20184;-73
2023/04/27 05:45:02;;;;;;;10.70;5.70;;;;;;;6.26;100.00;100353.78;5073833;28;20849;-73
2023/04/27 05:47:29;;;;;;;12.43;5.57;;;;;;;6.45;100.00;100354.00;5060342;28;20625;-73
2023/04/27 05:49:55;;;;;;;8.30;5.43;;;;;;;6.55;100.00;100357.09;5072889;28;20631;-72
2023/04/27 05:52:20;;;;;;;6.37;4.90;;;;;;;6.71;100.00;100354.00;5086580;28;20232;-73
2023/04/27 05:54:49;;;;;;;7.20;5.50;;;;;;;6.84;100.00;100350.13;5079167;28;20237;-73
2023/04/27 05:57:15;;;;;;;11.70;6.00;;;;;;;7.06;100.00;100352.75;5073290;28;20203;-73
2023/04/27 05:59:41;;;;;;;6.80;4.93;;;;;;;7.22;100.00;100355.59;5073050;28;20605;-73
2023/04/27 06:02:07;;;;;;;8.83;4.83;;;;;;;7.23;100.00;100356.41;5072528;28;20719;-73
2023/04/27 06:04:32;;;;;;;12.77;5.07;;;;;;;7.30;100.00;100362.16;5091758;28;20190;-72
2023/04/27 06:06:58;;;;;;;8.27;4.77;;;;;;;7.61;100.00;100366.97;5072720;28;20185;-72
2023/04/27 06:09:24;;;;;;;7.43;4.80;;;;;;;8.13;100.00;100369.22;5074053;28;20405;-72
2023/04/27 06:11:50;;;;;;;9.80;4.67;;;;;;;8.75;100.00;100371.03;5077710;28;20689;-71
2023/04/27 06:14:15;;;;;;;7.63;4.70;;;;;;;9.34;100.00;100370.13;5072595;28;20179;-71
2023/04/27 06:16:41;;;;;;;10.33;4.83;;;;;;;9.61;97.33;100364.66;5073530;28;20265;-72
2023/04/27 06:19:06;;;;;;;4.77;3.80;;;;;;;9.28;84.36;100367.00;5072762;28;20549;-72
2023/04/27 06:21:32;;;;;;;6.27;3.97;;;;;;;8.80;86.85;100372.47;5065401;28;20235;-72
2023/04/27 06:23:57;;;;;;;5.10;3.83;;;;;;;9.07;87.90;100374.75;5072456;28;20326;-72
2023/04/27 06:26:23;;;;;;;6.90;3.87;;;;;;;9.33;82.94;100376.16;5068480;28;20637;-72
2023/04/27 06:28:48;;;;;;;4.67;3.20;;;;;;;9.63;79.31;100375.66;5064239;28;20176;-72
2023/04/27 06:31:14;;;;;;;7.93;3.20;;;;;;;9.65;74.63;100381.59;5062018;28;20233;-71
2023/04/27 06:33:39;;;;;;;7.70;3.17;;;;;;;9.42;71.53;100380.06;5072339;28;20318;-70
2023/04/27 06:36:05;;;;;;;9.50;4.53;;;;;;;9.47;73.05;100379.84;5072462;28;20663;-76
2023/04/27 06:38:30;;;;;;;7.43;4.17;;;;;;;9.78;75.65;100386.97;5069299;28;20178;-82
2023/04/27 06:40:56;;;;;;;7.77;3.53;;;;;;;10.27;66.28;100388.09;5064514;28;20219;-80
2023/04/27 06:43:21;;;;;;;7.77;3.77;;;;;;;10.85;64.48;100386.97;5089659;28;20181;-78
2023/04/27 06:45:47;;;;;;;5.80;3.30;;;;;;;11.97;56.68;100386.25;5071942;28;20180;-73
2023/04/27 06:48:12;;;;;;;9.83;3.23;;;;;;;12.54;53.45;100390.75;5073467;28;20180;-73
2023/04/27 06:50:37;;;;;;;5.77;3.30;;;;;;;12.52;52.83;100390.84;5064336;28;20224;-74
2023/04/27 06:53:02;;;;;;;7.00;3.30;;;;;;;14.80;47.84;100379.34;5067559;28;20182;-74
2023/04/27 06:55:28;;;;;;;5.33;2.93;;;;;;;15.16;43.93;100381.13;5071548;28;20220;-71
2023/04/27 06:57:53;;;;;;;6.90;3.37;;;;;;;13.98;45.19;100382.06;5073296;28;20176;-72
2023/04/27 07:00:18;;;;;;;6.47;3.30;;;;;;;13.08;47.76;100377.25;5054089;28;20191;-71
2023/04/27 07:02:44;;;;;;;7.17;3.30;;;;;;;12.86;48.21;100377.72;5066222;28;20189;-72
2023/04/27 07:05:09;;;;;;;6.00;2.87;;;;;;;13.05;48.10;100375.69;5067135;28;20197;-71
2023/04/27 07:07:35;;;;;;;6.77;3.07;;;;;;;13.60;47.13;100387.94;5064557;28;20667;-71
2023/04/27 07:10:00;;;;;;;6.20;3.40;;;;;;;13.62;45.58;100384.31;5071537;28;20224;-72
2023/04/27 07:12:25;;;;;;;8.07;3.70;;;;;;;13.64;45.66;100379.03;5058180;28;20271;-71
2023/04/27 07:14:51;;;;;;;9.27;3.30;;;;;;;14.04;45.47;100379.06;5071859;28;20173;-72
2023/04/27 07:17:16;;;;;;;6.53;3.30;;;;;;;14.09;44.85;100383.97;5078128;28;20314;-71
2023/04/27 07:19:41;;;;;;;6.33;3.53;;;;;;;14.15;44.97;100392.16;5064329;28;20196;-71
2023/04/27 07:22:07;;;;;;;7.60;3.53;;;;;;;14.93;43.40;100379.31;5064605;28;20984;-72
2023/04/27 07:24:32;;;;;;;7.80;3.50;;;;;;;15.06;42.57;100385.31;5070531;28;20199;-71
2023/04/27 07:26:58;;;;;;;7.83;3.20;;;;;;;15.15;42.58;100378.66;5071240;28;20180;-72
2023/04/27 07:29:26;;;;;;;7.97;3.20;;;;;;;14.63;43.10;100385.59;5069748;28;20193;-72
2023/04/27 07:31:52;;;;;;;9.93;3.27;;;;;;;15.23;42.95;100391.06;5055192;28;20608;-72
2023/04/27 07:34:18;;;;;;;7.33;3.30;;;;;;;15.17;42.95;100382.81;5071053;28;20193;-72
2023/04/27 07:36:44;;;;;;;6.27;2.80;;;;;;;14.90;42.72;100380.34;5070573;28;20195;-73
2023/04/27 07:39:10;;;;;;;4.73;2.77;;;;;;;15.74;42.27;100375.38;5069110;28;20185;-72
2023/04/27 07:41:35;;;;;;;5.90;2.73;;;;;;;15.20;41.63;100380.94;5067557;28;20261;-70
2023/04/27 07:44:01;;;;;;;6.53;2.73;;;;;;;15.27;41.44;100380.41;5068233;28;20208;-71
2023/04/27 07:46:26;;;;;;;6.07;3.07;;;;;;;14.72;41.66;100369.47;5061465;28;20717;-71
2023/04/27 07:48:54;;;;;;;5.93;2.60;;;;;;;14.23;43.29;100372.69;5057675;28;20185;-70
2023/04/27 07:51:20;;;;;;;5.70;2.87;;;;;;;14.19;42.77;100364.34;5052485;28;20397;-71
2023/04/27 07:53:45;;;;;;;8.33;2.87;;;;;;;15.40;40.22;100361.41;5075755;28;20246;-70
2023/04/27 07:56:10;;;;;;;8.87;3.10;;;;;;;15.33;40.08;100366.16;5071563;28;20583;-71
2023/04/27 07:58:36;;;;;;;8.30;2.97;;;;;;;16.02;39.06;100370.81;5069674;28;20183;-70
2023/04/27 08:01:02;;;;;;;8.07;2.97;;;;;;;16.90;37.19;100360.81;5056652;28;20224;-70
2023/04/27 08:03:27;;;;;;;10.00;2.70;;;;;;;18.91;34.67;100372.50;5076250;28;20274;-70
2023/04/27 08:05:54;;;;;;;4.40;3.17;;;;;;;20.07;32.53;100380.66;5066243;28;20702;-70
2023/04/27 08:08:20;;;;;;;7.53;2.83;;;;;;;19.63;33.24;100373.22;5069396;28;20570;-72
2023/04/27 08:10:45;;;;;;;6.00;2.70;;;;;;;19.58;32.37;100368.41;5051682;28;20232;-72
2023/04/27 08:13:10;;;;;;;6.33;2.97;;;;;;;18.74;33.32;100372.13;5080026;28;20263;-70
2023/04/27 08:15:36;;;;;;;7.17;3.03;;;;;;;17.20;35.26;100364.59;5066358;28;20507;-70
2023/04/27 08:18:01;;;;;;;6.00;3.33;;;;;;;17.27;35.90;100376.19;5075236;28;20203;-69
2023/04/27 08:20:27;;;;;;;5.97;3.00;;;;;;;17.53;36.13;100373.31;5072324;28;20302;-68
2023/04/27 08:22:52;;;;;;;5.30;3.07;;;;;;;17.00;36.20;100366.16;5067781;28;20631;-70
2023/04/27 08:25:18;;;;;;;5.93;2.93;;;;;;;16.82;36.99;100370.97;5058535;28;20293;-70
2023/04/27 08:27:43;;;;;;;17.17;15.33;;;;;;;17.15;37.48;100370.16;5069595;28;20184;-69
2023/04/27 08:30:09;;;;;;;5.73;2.67;;;;;;;16.77;37.96;100356.56;5060303;28;20173;-59
2023/04/27 08:32:34;;;;;;;8.80;3.17;;;;;;;18.43;37.16;100358.25;5072445;28;20621;-59
2023/04/27 08:34:59;;;;;;;5.77;3.43;;;;;;;18.94;35.07;100356.59;5067328;28;20179;-59
2023/04/27 08:37:25;;;;;;;4.47;2.53;;;;;;;18.01;35.37;100364.28;5065814;28;20173;-59
2023/04/27 08:39:50;;;;;;;6.67;3.27;;;;;;;16.92;36.66;100361.56;5069865;28;20632;-74
2023/04/27 08:42:15;;;;;;;6.90;2.70;;;;;;;17.31;36.35;100371.56;5059260;28;20226;-73
2023/04/27 08:44:42;;;;;;;5.23;2.67;;;;;;;17.22;34.18;100371.34;5059106;28;20272;-74
2023/04/27 08:47:08;;;;;;;6.07;2.33;;;;;;;18.43;33.93;100366.91;5069174;28;20202;-75
2023/04/27 08:49:34;;;;;;;5.30;2.50;;;;;;;19.40;33.32;100370.88;5070093;28;20722;-73
2023/04/27 08:52:01;;;;;;;4.93;2.57;;;;;;;18.14;33.43;100380.53;5063458;28;20319;-73
2023/04/27 08:54:26;;;;;;;5.03;2.67;;;;;;;17.27;34.98;100373.59;5056988;28;20548;-73
2023/04/27 08:56:52;;;;;;;9.30;2.90;;;;;;;15.92;36.81;100373.22;5058173;28;20180;-72
2023/04/27 08:59:17;;;;;;;6.40;2.47;;;;;;;17.55;35.10;100376.59;5056524;28;20271;-72
2023/04/27 09:01:47;;;;;;;6.53;2.73;;;;;;;18.29;33.67;100381.06;5051181;28;20311;-73
2023/04/27 09:04:13;;;;;;;9.37;3.00;;;;;;;18.33;33.56;100381.63;5063951;28;20181;-71
2023/04/27 09:06:38;;;;;;;5.40;2.60;;;;;;;18.28;33.82;100379.41;5062877;28;20245;-73
2023/04/27 09:09:05;;;;;;;6.40;2.70;;;;;;;17.05;34.83;100367.44;5070415;28;20732;-74
2023/04/27 09:11:38;;;;;;;5.43;2.43;;;;;;;16.85;34.79;100373.34;5064375;28;20219;-75
2023/04/27 09:14:20;;;;;;;6.03;3.13;;;;;;;16.07;36.56;100380.84;5073750;28;20216;-71
2023/04/27 09:16:56;;;;;;;8.67;2.87;;;;;;;17.18;35.13;100367.34;5070947;28;20192;-76
2023/04/27 09:19:26;;;;;;;6.03;2.57;;;;;;;18.34;33.23;100368.47;5060157;28;20231;-75
2023/04/27 09:22:06;;;;;;;5.43;2.90;;;;;;;18.51;32.00;100376.69;5062704;28;20228;-74
2023/04/27 09:24:31;;;;;;;4.07;2.30;;;;;;;18.31;32.49;100373.13;5062924;28;20177;-75
2023/04/27 09:26:57;;;;;;;9.10;2.37;;;;;;;17.58;32.71;100371.97;5062365;28;20241;-72
2023/04/27 09:29:36;;;;;;;7.30;2.93;;;;;;;17.22;34.04;100367.91;5073306;28;20185;-75
2023/04/27 09:32:13;;;;;;;7.23;2.40;;;;;;;20.07;31.41;100362.38;5079375;28;20212;-74
2023/04/27 09:34:39;;;;;;;8.87;3.07;;;;;;;20.52;29.11;100359.16;5063420;28;20272;-75
2023/04/27 09:37:06;;;;;;;5.43;2.40;;;;;;;20.70;28.53;100363.63;5067398;28;20188;-75
2023/04/27 09:39:31;;;;;;;7.27;2.90;;;;;;;20.02;29.42;100367.22;5058177;28;20189;-77
2023/04/27 09:41:57;;;;;;;8.47;3.10;;;;;;;20.73;28.22;100358.97;5048980;28;20643;-76
2023/04/27 09:44:22;;;;;;;5.27;2.37;;;;;;;22.20;26.64;100355.38;5067291;28;20553;-74
2023/04/27 09:46:50;;;;;;;6.37;2.63;;;;;;;20.63;27.96;100376.47;5071039;28;20189;-74
2023/04/27 09:49:17;;;;;;;6.23;2.67;;;;;;;22.40;27.68;100357.81;5062776;28;20196;-77
2023/04/27 09:51:44;;;;;;;6.23;2.47;;;;;;;22.81;25.74;100357.19;5062521;28;20243;-77
2023/04/27 09:54:12;;;;;;;8.60;2.70;;;;;;;22.85;25.93;100351.47;5072892;28;20180;-77
2023/04/27 09:56:43;;;;;;;5.93;2.78;;;;;;;22.36;26.04;100357.28;5073737;28;20180;-77
2023/04/27 09:59:15;;;;;;;8.27;3.33;;;;;;;21.77;27.19;100359.63;5073014;28;20522;-76
2023/04/27 10:01:53;;;;;;;8.77;3.53;;;;;;;19.67;29.61;100359.78;5066129;28;20231;-75
2023/04/27 10:04:47;;;;;;;7.10;3.07;;;;;;;20.09;28.84;100363.09;5061821;28;20707;-75
2023/04/27 10:07:16;;;;;;;8.00;3.40;;;;;;;21.18;28.44;100354.75;5073476;28;20930;-76
2023/04/27 10:09:45;;;;;;;6.00;3.55;;;;;;;22.02;27.27;100350.16;5060475;28;20262;-75
2023/04/27 10:12:26;;;;;;;6.03;3.50;;;;;;;23.00;25.98;100346.44;5067768;28;20232;-75
2023/04/27 10:14:53;;;;;;;9.32;3.40;;;;;;;23.79;25.31;100353.16;5064551;28;20165;-72
2023/04/27 10:17:24;;;;;;;4.47;2.92;;;;;;;23.62;26.07;100345.28;5085419;28;20567;-76
2023/04/27 10:19:57;;;;;;;6.47;3.55;;;;;;;25.21;26.48;100342.16;5076934;28;20209;-77
2023/04/27 10:22:23;;;;;;;6.78;3.25;;;;;;;24.36;24.16;100354.13;5076483;28;20311;-77
2023/04/27 10:24:50;;;;;;;7.65;3.80;;;;;;;23.00;27.26;100343.84;5069465;28;20271;-75
2023/04/27 10:27:20;;;;;;;8.00;4.20;;;;;;;22.95;26.85;100338.25;5081977;28;20210;-74
2023/04/27 10:29:46;;;;;;;5.22;3.47;;;;;;;22.38;26.47;100334.38;5059108;28;20583;-74
2023/04/27 10:32:25;;;;;;;9.85;3.35;;;;;;;24.82;25.17;100328.06;5078662;28;20278;-73
2023/04/27 10:35:08;;;;;;;9.15;3.55;;;;;;;26.18;24.73;100331.03;5071743;28;20271;-74
2023/04/27 10:37:41;;;;;;;5.82;2.88;;;;;;;24.25;24.33;100336.91;5070988;28;20251;-75
2023/04/27 10:40:13;;;;;;;7.00;3.72;;;;;;;20.75;28.15;100337.91;5066986;28;20654;-78
2023/04/27 10:42:39;;;;;;;9.38;3.72;;;;;;;18.38;31.80;100336.03;5072212;28;20512;-75
2023/04/27 10:45:05;;;;;;;9.40;3.57;;;;;;;18.38;33.08;100330.81;5071292;28;20196;-76
2023/04/27 10:47:42;;;;;;;5.93;3.60;;;;;;;17.70;32.63;100325.94;5068606;28;20633;-77
2023/04/27 10:50:12;;;;;;;8.00;3.73;;;;;;;17.10;34.23;100331.56;5057509;28;20173;-75
2023/04/27 10:52:45;;;;;;;5.40;3.60;;;;;;;16.84;35.61;100323.13;5071853;28;20514;-75
2023/04/27 10:55:13;;;;;;;8.27;3.70;;;;;;;16.93;35.06;100327.66;5072537;28;20212;-77
2023/04/27 10:57:49;;;;;;;6.13;3.60;;;;;;;16.82;35.46;100319.84;5073373;28;20190;-77
2023/04/27 11:00:26;;;;;;;11.73;5.90;;;;;;;16.41;37.01;100322.06;5049337;28;20173;-73
2023/04/27 11:02:56;;;;;;;8.17;3.70;;;;;;;16.66;37.18;100319.34;5058672;28;20187;-75
2023/04/27 11:05:24;;;;;;;6.97;4.27;;;;;;;16.66;36.23;100312.41;5058952;28;20633;-77
2023/04/27 11:08:04;;;;;;;8.27;4.10;;;;;;;16.18;37.35;100315.19;5065670;28;20616;-76
2023/04/27 11:10:30;;;;;;;5.80;3.40;;;;;;;17.17;37.58;100299.88;5066162;28;20232;-79
2023/04/27 11:12:55;;;;;;;7.47;3.40;;;;;;;17.49;37.98;100304.25;5069337;28;20187;-77
2023/04/27 11:15:21;;;;;;;5.40;3.03;;;;;;;17.53;36.72;100297.88;5062923;28;20324;-76
2023/04/27 11:17:46;;;;;;;17.13;4.10;;;;;;;17.90;36.24;100295.69;5070940;28;20546;-73
2023/04/27 11:20:12;;;;;;;8.27;3.70;;;;;;;18.08;35.41;100291.72;5062082;28;20647;-75
2023/04/27 11:22:45;;;;;;;7.03;3.27;;;;;;;17.49;35.39;100293.84;5075346;28;20203;-74